sensor_id;sensor_type;location;lat;lon;timestamp;temperature;humidity
40454;DHT22;26160;51.858;4.398;2023-11-22T00:01:05;6.50;99.90
40454;DHT22;26160;51.858;4.398;2023-11-22T00:03:31;6.50;99.90
40454;DHT22;26160;51.858;4.398;2023-11-22T00:05:58;6.50;99.90
40454;DHT22;26160;51.858;4.398;2023-11-22T00:08:24;6.50;99.90
40454;DHT22;26160;51.858;4.398;2023-11-22T00:10:50;6.40;99.90
40454;DHT22;26160;51.858;4.398;2023-11-22T00:13:16;6.40;99.90
40454;DHT22;26160;51.858;4.398;2023-11-22T00:15:42;6.40;99.90
40454;DHT22;26160;51.858;4.398;2023-11-22T00:18:08;6.40;99.90
40454;DHT22;26160;51.858;4.398;2023-11-22T00:20:35;6.30;99.90
40454;DHT22;26160;51.858;4.398;2023-11-22T00:23:02;6.30;99.90
40454;DHT22;26160;51.858;4.398;2023-11-22T00:25:31;6.20;99.90
40454;DHT22;26160;51.858;4.398;2023-11-22T00:27:58;6.20;99.90
40454;DHT22;26160;51.858;4.398;2023-11-22T00:30:24;6.30;99.90
40454;DHT22;26160;51.858;4.398;2023-11-22T00:32:50;6.20;99.90
40454;DHT22;26160;51.858;4.398;2023-11-22T00:35:17;6.20;99.90
40454;DHT22;26160;51.858;4.398;2023-11-22T00:37:43;6.20;99.90
40454;DHT22;26160;51.858;4.398;2023-11-22T00:40:10;6.20;99.90
40454;DHT22;26160;51.858;4.398;2023-11-22T00:42:40;6.20;99.90
40454;DHT22;26160;51.858;4.398;2023-11-22T00:45:09;6.20;99.90
40454;DHT22;26160;51.858;4.398;2023-11-22T00:47:36;6.10;99.90
40454;DHT22;26160;51.858;4.398;2023-11-22T00:50:02;6.10;99.90
40454;DHT22;26160;51.858;4.398;2023-11-22T00:52:30;6.10;99.90
40454;DHT22;26160;51.858;4.398;2023-11-22T00:54:57;6.00;99.90
40454;DHT22;26160;51.858;4.398;2023-11-22T00:57:23;5.90;99.90
40454;DHT22;26160;51.858;4.398;2023-11-22T00:59:49;5.90;99.90
40454;DHT22;26160;51.858;4.398;2023-11-22T01:02:16;5.80;99.90
40454;DHT22;26160;51.858;4.398;2023-11-22T01:04:42;5.80;99.90
40454;DHT22;26160;51.858;4.398;2023-11-22T01:07:08;5.70;99.90
40454;DHT22;26160;51.858;4.398;2023-11-22T01:09:35;5.60;99.90
40454;DHT22;26160;51.858;4.398;2023-11-22T01:12:02;5.50;99.90
40454;DHT22;26160;51.858;4.398;2023-11-22T01:14:28;5.40;99.90
40454;DHT22;26160;51.858;4.398;2023-11-22T01:16:54;5.30;99.90
40454;DHT22;26160;51.858;4.398;2023-11-22T01:19:20;5.40;99.90
40454;DHT22;26160;51.858;4.398;2023-11-22T01:21:47;5.40;99.90
40454;DHT22;26160;51.858;4.398;2023-11-22T01:24:13;5.30;99.90
40454;DHT22;26160;51.858;4.398;2023-11-22T01:26:39;5.30;99.90
40454;DHT22;26160;51.858;4.398;2023-11-22T01:29:06;5.20;99.90
40454;DHT22;26160;51.858;4.398;2023-11-22T01:31:34;5.20;99.90
40454;DHT22;26160;51.858;4.398;2023-11-22T01:34:00;5.20;99.90
40454;DHT22;26160;51.858;4.398;2023-11-22T01:36:27;5.10;99.90
40454;DHT22;26160;51.858;4.398;2023-11-22T01:38:54;5.10;99.90
40454;DHT22;26160;51.858;4.398;2023-11-22T01:41:20;5.10;99.90
40454;DHT22;26160;51.858;4.398;2023-11-22T01:43:47;5.00;99.90
40454;DHT22;26160;51.858;4.398;2023-11-22T01:46:24;5.00;99.90
40454;DHT22;26160;51.858;4.398;2023-11-22T01:48:52;4.90;99.90
40454;DHT22;26160;51.858;4.398;2023-11-22T01:51:22;4.90;99.90
40454;DHT22;26160;51.858;4.398;2023-11-22T01:53:51;4.90;99.90
40454;DHT22;26160;51.858;4.398;2023-11-22T01:56:23;4.80;99.90
40454;DHT22;26160;51.858;4.398;2023-11-22T01:58:49;4.80;99.90
40454;DHT22;26160;51.858;4.398;2023-11-22T02:03:52;4.90;99.90
40454;DHT22;26160;51.858;4.398;2023-11-22T02:06:20;4.90;99.90
40454;DHT22;26160;51.858;4.398;2023-11-22T02:08:47;4.80;99.90
40454;DHT22;26160;51.858;4.398;2023-11-22T02:11:17;4.90;99.90
40454;DHT22;26160;51.858;4.398;2023-11-22T02:13:48;4.90;99.90
40454;DHT22;26160;51.858;4.398;2023-11-22T02:16:16;4.80;99.90
40454;DHT22;26160;51.858;4.398;2023-11-22T02:18:49;4.80;99.90
40454;DHT22;26160;51.858;4.398;2023-11-22T02:21:18;4.80;99.90
40454;DHT22;26160;51.858;4.398;2023-11-22T02:23:44;4.80;99.90
40454;DHT22;26160;51.858;4.398;2023-11-22T02:26:10;4.70;99.90
40454;DHT22;26160;51.858;4.398;2023-11-22T02:28:36;4.70;99.90
40454;DHT22;26160;51.858;4.398;2023-11-22T02:31:04;4.80;99.90
40454;DHT22;26160;51.858;4.398;2023-11-22T02:33:30;4.80;99.90
40454;DHT22;26160;51.858;4.398;2023-11-22T02:35:56;4.80;99.90
40454;DHT22;26160;51.858;4.398;2023-11-22T02:38:23;4.80;99.90
40454;DHT22;26160;51.858;4.398;2023-11-22T02:40:49;4.80;99.90
40454;DHT22;26160;51.858;4.398;2023-11-22T02:43:16;4.80;99.90
40454;DHT22;26160;51.858;4.398;2023-11-22T02:45:42;4.80;99.90
40454;DHT22;26160;51.858;4.398;2023-11-22T02:48:09;4.80;99.90
40454;DHT22;26160;51.858;4.398;2023-11-22T02:50:35;4.80;99.90
40454;DHT22;26160;51.858;4.398;2023-11-22T02:53:03;4.90;99.90
40454;DHT22;26160;51.858;4.398;2023-11-22T02:55:29;4.90;99.90
40454;DHT22;26160;51.858;4.398;2023-11-22T02:57:56;4.90;99.90
40454;DHT22;26160;51.858;4.398;2023-11-22T03:00:23;5.00;99.90
40454;DHT22;26160;51.858;4.398;2023-11-22T03:02:51;4.90;99.90
40454;DHT22;26160;51.858;4.398;2023-11-22T03:05:24;4.90;99.90
40454;DHT22;26160;51.858;4.398;2023-11-22T03:07:53;4.90;99.90
40454;DHT22;26160;51.858;4.398;2023-11-22T03:10:19;4.90;99.90
40454;DHT22;26160;51.858;4.398;2023-11-22T03:12:45;4.90;99.90
40454;DHT22;26160;51.858;4.398;2023-11-22T03:15:12;4.90;99.90
40454;DHT22;26160;51.858;4.398;2023-11-22T03:17:38;4.90;99.90
40454;DHT22;26160;51.858;4.398;2023-11-22T03:20:05;4.80;99.90
40454;DHT22;26160;51.858;4.398;2023-11-22T03:22:35;4.90;99.90
40454;DHT22;26160;51.858;4.398;2023-11-22T03:25:04;4.90;99.90
40454;DHT22;26160;51.858;4.398;2023-11-22T03:27:31;4.80;99.90
40454;DHT22;26160;51.858;4.398;2023-11-22T03:29:57;4.80;99.90
40454;DHT22;26160;51.858;4.398;2023-11-22T03:32:24;4.90;99.90
40454;DHT22;26160;51.858;4.398;2023-11-22T03:34:50;4.90;99.90
40454;DHT22;26160;51.858;4.398;2023-11-22T03:37:16;4.90;99.90
40454;DHT22;26160;51.858;4.398;2023-11-22T03:39:43;4.90;99.90
40454;DHT22;26160;51.858;4.398;2023-11-22T03:42:17;5.00;99.90
40454;DHT22;26160;51.858;4.398;2023-11-22T03:44:43;5.00;99.90
40454;DHT22;26160;51.858;4.398;2023-11-22T03:47:10;4.90;99.90
40454;DHT22;26160;51.858;4.398;2023-11-22T03:49:40;4.90;99.90
40454;DHT22;26160;51.858;4.398;2023-11-22T03:52:06;5.00;99.90
40454;DHT22;26160;51.858;4.398;2023-11-22T03:54:34;5.00;99.90
40454;DHT22;26160;51.858;4.398;2023-11-22T03:57:01;5.00;99.90
40454;DHT22;26160;51.858;4.398;2023-11-22T03:59:28;5.00;99.90
40454;DHT22;26160;51.858;4.398;2023-11-22T04:01:54;5.10;99.90
40454;DHT22;26160;51.858;4.398;2023-11-22T04:04:20;5.10;99.90
40454;DHT22;26160;51.858;4.398;2023-11-22T04:06:46;5.10;99.90
40454;DHT22;26160;51.858;4.398;2023-11-22T04:09:12;5.10;99.90
40454;DHT22;26160;51.858;4.398;2023-11-22T04:11:40;5.10;99.90
40454;DHT22;26160;51.858;4.398;2023-11-22T04:14:06;5.10;99.90
40454;DHT22;26160;51.858;4.398;2023-11-22T04:16:32;5.10;99.90
40454;DHT22;26160;51.858;4.398;2023-11-22T04:18:58;5.10;99.90
40454;DHT22;26160;51.858;4.398;2023-11-22T04:21:24;5.00;99.90
40454;DHT22;26160;51.858;4.398;2023-11-22T04:23:50;5.00;99.90
40454;DHT22;26160;51.858;4.398;2023-11-22T04:26:17;5.00;99.90
40454;DHT22;26160;51.858;4.398;2023-11-22T04:28:46;5.00;99.90
40454;DHT22;26160;51.858;4.398;2023-11-22T04:31:12;5.10;99.90
40454;DHT22;26160;51.858;4.398;2023-11-22T04:33:39;5.10;99.90
40454;DHT22;26160;51.858;4.398;2023-11-22T04:36:05;5.00;99.90
40454;DHT22;26160;51.858;4.398;2023-11-22T04:38:32;5.00;99.90
40454;DHT22;26160;51.858;4.398;2023-11-22T04:41:00;5.00;99.90
40454;DHT22;26160;51.858;4.398;2023-11-22T04:43:26;5.00;99.90
40454;DHT22;26160;51.858;4.398;2023-11-22T04:45:52;5.00;99.90
40454;DHT22;26160;51.858;4.398;2023-11-22T04:48:19;5.00;99.90
40454;DHT22;26160;51.858;4.398;2023-11-22T04:50:45;5.00;99.90
40454;DHT22;26160;51.858;4.398;2023-11-22T04:53:11;5.00;99.90
40454;DHT22;26160;51.858;4.398;2023-11-22T04:55:37;5.00;99.90
40454;DHT22;26160;51.858;4.398;2023-11-22T04:58:03;5.00;99.90
40454;DHT22;26160;51.858;4.398;2023-11-22T05:00:29;5.00;99.90
40454;DHT22;26160;51.858;4.398;2023-11-22T05:02:55;5.00;99.90
40454;DHT22;26160;51.858;4.398;2023-11-22T05:05:22;5.00;99.90
40454;DHT22;26160;51.858;4.398;2023-11-22T05:07:48;5.00;99.90
40454;DHT22;26160;51.858;4.398;2023-11-22T05:10:14;5.00;99.90
40454;DHT22;26160;51.858;4.398;2023-11-22T05:12:40;5.00;99.90
40454;DHT22;26160;51.858;4.398;2023-11-22T05:15:07;5.00;99.90
40454;DHT22;26160;51.858;4.398;2023-11-22T05:17:34;5.00;99.90
40454;DHT22;26160;51.858;4.398;2023-11-22T05:20:00;5.00;99.90
40454;DHT22;26160;51.858;4.398;2023-11-22T05:22:27;5.00;99.90
40454;DHT22;26160;51.858;4.398;2023-11-22T05:24:53;5.00;99.90
40454;DHT22;26160;51.858;4.398;2023-11-22T05:27:19;5.00;99.90
40454;DHT22;26160;51.858;4.398;2023-11-22T05:29:45;5.10;99.90
40454;DHT22;26160;51.858;4.398;2023-11-22T05:32:12;5.10;99.90
40454;DHT22;26160;51.858;4.398;2023-11-22T05:34:38;5.10;99.90
40454;DHT22;26160;51.858;4.398;2023-11-22T05:37:06;5.10;99.90
40454;DHT22;26160;51.858;4.398;2023-11-22T05:39:32;5.10;99.90
40454;DHT22;26160;51.858;4.398;2023-11-22T05:41:59;5.10;99.90
40454;DHT22;26160;51.858;4.398;2023-11-22T05:44:25;5.00;99.90
40454;DHT22;26160;51.858;4.398;2023-11-22T05:46:52;5.10;99.90
40454;DHT22;26160;51.858;4.398;2023-11-22T05:49:20;5.10;99.90
40454;DHT22;26160;51.858;4.398;2023-11-22T05:51:46;5.10;99.90
40454;DHT22;26160;51.858;4.398;2023-11-22T05:54:12;5.10;99.90
40454;DHT22;26160;51.858;4.398;2023-11-22T05:56:38;5.20;99.90
40454;DHT22;26160;51.858;4.398;2023-11-22T05:59:05;5.20;99.90
40454;DHT22;26160;51.858;4.398;2023-11-22T06:01:32;5.20;99.90
40454;DHT22;26160;51.858;4.398;2023-11-22T06:03:58;5.20;99.90
40454;DHT22;26160;51.858;4.398;2023-11-22T06:06:24;5.20;99.90
40454;DHT22;26160;51.858;4.398;2023-11-22T06:08:51;5.20;99.90
40454;DHT22;26160;51.858;4.398;2023-11-22T06:11:17;5.20;99.90
40454;DHT22;26160;51.858;4.398;2023-11-22T06:13:43;5.20;99.90
40454;DHT22;26160;51.858;4.398;2023-11-22T06:16:09;5.30;99.90
40454;DHT22;26160;51.858;4.398;2023-11-22T06:18:36;5.30;99.90
40454;DHT22;26160;51.858;4.398;2023-11-22T06:21:07;5.20;99.90
40454;DHT22;26160;51.858;4.398;2023-11-22T06:23:34;5.20;99.90
40454;DHT22;26160;51.858;4.398;2023-11-22T06:26:00;5.30;99.90
40454;DHT22;26160;51.858;4.398;2023-11-22T06:28:27;5.30;99.90
40454;DHT22;26160;51.858;4.398;2023-11-22T06:30:53;5.20;99.90
40454;DHT22;26160;51.858;4.398;2023-11-22T06:33:19;5.20;99.90
40454;DHT22;26160;51.858;4.398;2023-11-22T06:35:45;5.20;99.90
40454;DHT22;26160;51.858;4.398;2023-11-22T06:38:12;5.20;99.90
40454;DHT22;26160;51.858;4.398;2023-11-22T06:40:38;5.20;99.90
40454;DHT22;26160;51.858;4.398;2023-11-22T06:43:04;5.20;99.90
40454;DHT22;26160;51.858;4.398;2023-11-22T06:45:31;5.20;99.90
40454;DHT22;26160;51.858;4.398;2023-11-22T06:47:57;5.20;99.90
40454;DHT22;26160;51.858;4.398;2023-11-22T06:50:24;5.20;99.90
40454;DHT22;26160;51.858;4.398;2023-11-22T06:52:50;5.20;99.90
40454;DHT22;26160;51.858;4.398;2023-11-22T06:55:18;5.20;99.90
40454;DHT22;26160;51.858;4.398;2023-11-22T06:57:45;5.20;99.90
40454;DHT22;26160;51.858;4.398;2023-11-22T07:00:12;5.20;99.90
40454;DHT22;26160;51.858;4.398;2023-11-22T07:02:38;5.30;99.90
40454;DHT22;26160;51.858;4.398;2023-11-22T07:05:06;5.30;99.90
40454;DHT22;26160;51.858;4.398;2023-11-22T07:07:35;5.30;99.90
40454;DHT22;26160;51.858;4.398;2023-11-22T07:10:02;5.30;99.90
40454;DHT22;26160;51.858;4.398;2023-11-22T07:12:28;5.30;99.90
40454;DHT22;26160;51.858;4.398;2023-11-22T07:14:55;5.40;99.90
40454;DHT22;26160;51.858;4.398;2023-11-22T07:17:21;5.40;99.90
40454;DHT22;26160;51.858;4.398;2023-11-22T07:19:48;5.40;99.90
40454;DHT22;26160;51.858;4.398;2023-11-22T07:22:15;5.50;99.90
40454;DHT22;26160;51.858;4.398;2023-11-22T07:24:49;5.50;99.90
40454;DHT22;26160;51.858;4.398;2023-11-22T07:27:20;5.50;99.90
40454;DHT22;26160;51.858;4.398;2023-11-22T07:29:46;5.40;99.90
40454;DHT22;26160;51.858;4.398;2023-11-22T07:32:13;5.40;99.90
40454;DHT22;26160;51.858;4.398;2023-11-22T07:34:40;5.40;99.90
40454;DHT22;26160;51.858;4.398;2023-11-22T07:37:07;5.30;99.90
40454;DHT22;26160;51.858;4.398;2023-11-22T07:39:35;5.30;99.90
40454;DHT22;26160;51.858;4.398;2023-11-22T07:42:02;5.30;99.90
40454;DHT22;26160;51.858;4.398;2023-11-22T07:44:28;5.30;99.90
40454;DHT22;26160;51.858;4.398;2023-11-22T07:46:59;5.20;99.90
40454;DHT22;26160;51.858;4.398;2023-11-22T07:49:28;5.20;99.90
40454;DHT22;26160;51.858;4.398;2023-11-22T07:51:55;5.30;99.90
40454;DHT22;26160;51.858;4.398;2023-11-22T07:54:22;5.20;99.90
40454;DHT22;26160;51.858;4.398;2023-11-22T07:56:52;5.30;99.90
40454;DHT22;26160;51.858;4.398;2023-11-22T07:59:21;5.30;99.90
40454;DHT22;26160;51.858;4.398;2023-11-22T08:01:47;5.30;99.90
40454;DHT22;26160;51.858;4.398;2023-11-22T08:04:16;5.30;99.90
40454;DHT22;26160;51.858;4.398;2023-11-22T08:06:42;5.20;99.90
40454;DHT22;26160;51.858;4.398;2023-11-22T08:09:09;5.20;99.90
40454;DHT22;26160;51.858;4.398;2023-11-22T08:11:36;5.20;99.90
40454;DHT22;26160;51.858;4.398;2023-11-22T08:14:03;5.20;99.90
40454;DHT22;26160;51.858;4.398;2023-11-22T08:16:29;5.20;99.90
40454;DHT22;26160;51.858;4.398;2023-11-22T08:18:56;5.20;99.90
40454;DHT22;26160;51.858;4.398;2023-11-22T08:21:23;5.30;99.90
40454;DHT22;26160;51.858;4.398;2023-11-22T08:23:49;5.30;99.90
40454;DHT22;26160;51.858;4.398;2023-11-22T08:26:16;5.50;99.90
40454;DHT22;26160;51.858;4.398;2023-11-22T08:28:42;5.50;99.90
40454;DHT22;26160;51.858;4.398;2023-11-22T08:31:08;5.60;99.90
40454;DHT22;26160;51.858;4.398;2023-11-22T08:33:38;5.60;99.90
40454;DHT22;26160;51.858;4.398;2023-11-22T08:36:08;5.70;99.90
40454;DHT22;26160;51.858;4.398;2023-11-22T08:38:35;5.70;99.90
40454;DHT22;26160;51.858;4.398;2023-11-22T08:41:05;5.80;99.90
40454;DHT22;26160;51.858;4.398;2023-11-22T08:43:32;5.80;99.90
40454;DHT22;26160;51.858;4.398;2023-11-22T08:46:02;5.80;99.90
40454;DHT22;26160;51.858;4.398;2023-11-22T08:48:33;5.90;99.90
40454;DHT22;26160;51.858;4.398;2023-11-22T08:51:00;5.90;99.90
40454;DHT22;26160;51.858;4.398;2023-11-22T08:53:27;5.90;99.90
40454;DHT22;26160;51.858;4.398;2023-11-22T08:55:53;6.00;99.90
40454;DHT22;26160;51.858;4.398;2023-11-22T08:58:20;6.00;99.90
40454;DHT22;26160;51.858;4.398;2023-11-22T09:00:47;6.00;99.90
40454;DHT22;26160;51.858;4.398;2023-11-22T09:03:13;6.00;99.90
40454;DHT22;26160;51.858;4.398;2023-11-22T09:05:43;6.10;99.90
40454;DHT22;26160;51.858;4.398;2023-11-22T09:08:09;6.10;99.90
40454;DHT22;26160;51.858;4.398;2023-11-22T09:10:47;6.00;99.90
40454;DHT22;26160;51.858;4.398;2023-11-22T09:13:13;6.10;99.90
40454;DHT22;26160;51.858;4.398;2023-11-22T09:15:42;6.20;99.90
40454;DHT22;26160;51.858;4.398;2023-11-22T09:18:11;6.20;99.90
40454;DHT22;26160;51.858;4.398;2023-11-22T09:20:41;6.20;99.90
40454;DHT22;26160;51.858;4.398;2023-11-22T09:23:10;6.20;99.90
40454;DHT22;26160;51.858;4.398;2023-11-22T09:25:37;6.20;99.90
40454;DHT22;26160;51.858;4.398;2023-11-22T09:28:03;6.20;99.90
40454;DHT22;26160;51.858;4.398;2023-11-22T09:30:31;6.30;99.90
40454;DHT22;26160;51.858;4.398;2023-11-22T09:33:13;6.30;99.90
40454;DHT22;26160;51.858;4.398;2023-11-22T09:35:44;6.30;99.90
40454;DHT22;26160;51.858;4.398;2023-11-22T09:38:13;6.30;99.90
40454;DHT22;26160;51.858;4.398;2023-11-22T09:40:45;6.30;99.90
40454;DHT22;26160;51.858;4.398;2023-11-22T09:43:12;6.30;99.90
40454;DHT22;26160;51.858;4.398;2023-11-22T09:45:41;6.40;99.90
40454;DHT22;26160;51.858;4.398;2023-11-22T09:53:33;6.40;99.90
40454;DHT22;26160;51.858;4.398;2023-11-22T09:56:02;6.40;99.90
40454;DHT22;26160;51.858;4.398;2023-11-22T09:58:33;6.40;99.90
40454;DHT22;26160;51.858;4.398;2023-11-22T10:01:02;6.30;99.90
40454;DHT22;26160;51.858;4.398;2023-11-22T10:03:31;6.40;99.90
40454;DHT22;26160;51.858;4.398;2023-11-22T10:05:58;6.40;99.90
40454;DHT22;26160;51.858;4.398;2023-11-22T10:08:27;6.40;99.90
40454;DHT22;26160;51.858;4.398;2023-11-22T10:10:56;6.50;99.90
40454;DHT22;26160;51.858;4.398;2023-11-22T10:13:22;6.50;99.90
40454;DHT22;26160;51.858;4.398;2023-11-22T10:15:52;6.50;99.90
40454;DHT22;26160;51.858;4.398;2023-11-22T10:18:21;6.70;99.90
40454;DHT22;26160;51.858;4.398;2023-11-22T10:20:49;6.70;99.90
40454;DHT22;26160;51.858;4.398;2023-11-22T10:23:17;6.80;99.90
40454;DHT22;26160;51.858;4.398;2023-11-22T10:25:53;6.90;99.90
40454;DHT22;26160;51.858;4.398;2023-11-22T10:28:20;7.00;99.90
40454;DHT22;26160;51.858;4.398;2023-11-22T10:30:48;7.20;99.90
40454;DHT22;26160;51.858;4.398;2023-11-22T10:33:15;7.40;99.90
40454;DHT22;26160;51.858;4.398;2023-11-22T10:35:46;7.50;99.90
40454;DHT22;26160;51.858;4.398;2023-11-22T10:38:14;7.40;99.90
40454;DHT22;26160;51.858;4.398;2023-11-22T10:40:41;7.40;99.90
40454;DHT22;26160;51.858;4.398;2023-11-22T10:43:14;7.40;99.90
40454;DHT22;26160;51.858;4.398;2023-11-22T10:45:44;7.30;99.90
40454;DHT22;26160;51.858;4.398;2023-11-22T10:48:15;7.40;99.90
40454;DHT22;26160;51.858;4.398;2023-11-22T10:50:43;7.30;99.90
40454;DHT22;26160;51.858;4.398;2023-11-22T10:53:12;7.40;99.90
40454;DHT22;26160;51.858;4.398;2023-11-22T10:55:45;7.30;99.90
40454;DHT22;26160;51.858;4.398;2023-11-22T10:58:14;7.40;99.90
40454;DHT22;26160;51.858;4.398;2023-11-22T11:00:42;7.40;99.90
40454;DHT22;26160;51.858;4.398;2023-11-22T11:03:18;7.40;99.90
40454;DHT22;26160;51.858;4.398;2023-11-22T11:05:56;7.50;99.90
40454;DHT22;26160;51.858;4.398;2023-11-22T11:08:25;7.60;99.90
40454;DHT22;26160;51.858;4.398;2023-11-22T11:10:53;7.70;99.90
40454;DHT22;26160;51.858;4.398;2023-11-22T11:13:22;7.80;99.90
40454;DHT22;26160;51.858;4.398;2023-11-22T11:15:50;7.80;99.90
40454;DHT22;26160;51.858;4.398;2023-11-22T11:18:18;7.90;99.90
40454;DHT22;26160;51.858;4.398;2023-11-22T11:20:58;8.00;99.90
40454;DHT22;26160;51.858;4.398;2023-11-22T11:23:27;8.00;99.90
40454;DHT22;26160;51.858;4.398;2023-11-22T11:25:56;8.10;99.90
40454;DHT22;26160;51.858;4.398;2023-11-22T11:28:23;8.20;99.90
40454;DHT22;26160;51.858;4.398;2023-11-22T11:30:54;8.20;99.90
40454;DHT22;26160;51.858;4.398;2023-11-22T11:33:33;8.20;99.90
40454;DHT22;26160;51.858;4.398;2023-11-22T11:36:02;8.20;99.90
40454;DHT22;26160;51.858;4.398;2023-11-22T11:38:35;8.10;99.90
40454;DHT22;26160;51.858;4.398;2023-11-22T11:41:11;8.20;99.90
40454;DHT22;26160;51.858;4.398;2023-11-22T11:43:48;8.20;99.90
40454;DHT22;26160;51.858;4.398;2023-11-22T11:46:16;8.20;99.90
40454;DHT22;26160;51.858;4.398;2023-11-22T11:48:48;8.20;99.90
40454;DHT22;26160;51.858;4.398;2023-11-22T11:51:21;8.20;99.90
40454;DHT22;26160;51.858;4.398;2023-11-22T11:53:48;8.20;99.90
40454;DHT22;26160;51.858;4.398;2023-11-22T11:56:15;8.30;99.90
40454;DHT22;26160;51.858;4.398;2023-11-22T11:58:46;8.30;99.90
40454;DHT22;26160;51.858;4.398;2023-11-22T12:01:13;8.40;99.90
40454;DHT22;26160;51.858;4.398;2023-11-22T12:03:39;8.60;99.90
40454;DHT22;26160;51.858;4.398;2023-11-22T12:06:06;8.70;99.90
40454;DHT22;26160;51.858;4.398;2023-11-22T12:08:33;8.60;99.90
40454;DHT22;26160;51.858;4.398;2023-11-22T12:11:03;8.70;99.90
40454;DHT22;26160;51.858;4.398;2023-11-22T12:13:37;8.70;99.90
40454;DHT22;26160;51.858;4.398;2023-11-22T12:16:07;8.70;99.90
40454;DHT22;26160;51.858;4.398;2023-11-22T12:18:55;8.50;99.90
40454;DHT22;26160;51.858;4.398;2023-11-22T12:21:22;8.50;99.90
40454;DHT22;26160;51.858;4.398;2023-11-22T12:23:49;8.50;99.90
40454;DHT22;26160;51.858;4.398;2023-11-22T12:26:17;8.50;99.90
40454;DHT22;26160;51.858;4.398;2023-11-22T12:28:48;8.60;99.90
40454;DHT22;26160;51.858;4.398;2023-11-22T12:31:15;8.60;99.90
40454;DHT22;26160;51.858;4.398;2023-11-22T12:33:42;8.60;99.90
40454;DHT22;26160;51.858;4.398;2023-11-22T12:36:12;8.60;99.90
40454;DHT22;26160;51.858;4.398;2023-11-22T12:38:42;8.60;99.90
40454;DHT22;26160;51.858;4.398;2023-11-22T12:41:09;8.60;99.90
40454;DHT22;26160;51.858;4.398;2023-11-22T12:43:35;8.60;99.90
40454;DHT22;26160;51.858;4.398;2023-11-22T12:46:06;8.70;99.90
40454;DHT22;26160;51.858;4.398;2023-11-22T12:48:33;8.80;99.90
40454;DHT22;26160;51.858;4.398;2023-11-22T12:51:00;8.90;99.90
40454;DHT22;26160;51.858;4.398;2023-11-22T12:53:27;9.00;99.90
40454;DHT22;26160;51.858;4.398;2023-11-22T12:55:56;9.00;99.90
40454;DHT22;26160;51.858;4.398;2023-11-22T12:58:24;9.00;99.90
40454;DHT22;26160;51.858;4.398;2023-11-22T13:00:54;9.00;99.90
40454;DHT22;26160;51.858;4.398;2023-11-22T13:03:28;9.00;99.90
40454;DHT22;26160;51.858;4.398;2023-11-22T13:05:54;9.10;99.90
40454;DHT22;26160;51.858;4.398;2023-11-22T13:08:21;9.10;99.90
40454;DHT22;26160;51.858;4.398;2023-11-22T13:10:55;9.00;99.90
40454;DHT22;26160;51.858;4.398;2023-11-22T13:13:23;9.00;99.90
40454;DHT22;26160;51.858;4.398;2023-11-22T13:15:50;9.00;99.90
40454;DHT22;26160;51.858;4.398;2023-11-22T13:18:17;8.80;99.90
40454;DHT22;26160;51.858;4.398;2023-11-22T13:20:44;8.80;99.90
40454;DHT22;26160;51.858;4.398;2023-11-22T13:23:11;8.80;99.90
40454;DHT22;26160;51.858;4.398;2023-11-22T13:25:40;8.90;99.90
40454;DHT22;26160;51.858;4.398;2023-11-22T13:28:10;9.00;99.90
40454;DHT22;26160;51.858;4.398;2023-11-22T13:30:36;9.00;99.90
40454;DHT22;26160;51.858;4.398;2023-11-22T13:33:02;9.00;99.90
40454;DHT22;26160;51.858;4.398;2023-11-22T13:35:29;9.00;99.90
40454;DHT22;26160;51.858;4.398;2023-11-22T13:38:00;8.90;99.90
40454;DHT22;26160;51.858;4.398;2023-11-22T13:40:28;8.80;99.90
40454;DHT22;26160;51.858;4.398;2023-11-22T13:42:58;8.80;99.90
40454;DHT22;26160;51.858;4.398;2023-11-22T13:45:25;8.80;99.90
40454;DHT22;26160;51.858;4.398;2023-11-22T13:47:54;8.80;99.90
40454;DHT22;26160;51.858;4.398;2023-11-22T13:50:26;8.80;99.90
40454;DHT22;26160;51.858;4.398;2023-11-22T13:52:54;8.70;99.90
40454;DHT22;26160;51.858;4.398;2023-11-22T13:55:21;8.70;99.90
40454;DHT22;26160;51.858;4.398;2023-11-22T13:57:51;8.70;99.90
40454;DHT22;26160;51.858;4.398;2023-11-22T14:00:19;8.70;99.90
40454;DHT22;26160;51.858;4.398;2023-11-22T14:02:46;8.60;99.90
40454;DHT22;26160;51.858;4.398;2023-11-22T14:05:12;8.60;99.90
40454;DHT22;26160;51.858;4.398;2023-11-22T14:07:39;8.60;99.90
40454;DHT22;26160;51.858;4.398;2023-11-22T14:10:05;8.60;99.90
40454;DHT22;26160;51.858;4.398;2023-11-22T14:12:32;8.60;99.90
40454;DHT22;26160;51.858;4.398;2023-11-22T14:14:59;8.60;99.90
40454;DHT22;26160;51.858;4.398;2023-11-22T14:17:25;8.60;99.90
40454;DHT22;26160;51.858;4.398;2023-11-22T14:19:57;8.60;99.90
40454;DHT22;26160;51.858;4.398;2023-11-22T14:22:24;8.60;99.90
40454;DHT22;26160;51.858;4.398;2023-11-22T14:24:51;8.60;99.90
40454;DHT22;26160;51.858;4.398;2023-11-22T14:27:18;8.50;99.90
40454;DHT22;26160;51.858;4.398;2023-11-22T14:29:46;8.50;99.90
40454;DHT22;26160;51.858;4.398;2023-11-22T14:32:15;8.60;99.90
40454;DHT22;26160;51.858;4.398;2023-11-22T14:34:42;8.60;99.90
40454;DHT22;26160;51.858;4.398;2023-11-22T14:37:10;8.60;99.90
40454;DHT22;26160;51.858;4.398;2023-11-22T14:39:36;8.60;99.90
40454;DHT22;26160;51.858;4.398;2023-11-22T14:42:03;8.50;99.90
40454;DHT22;26160;51.858;4.398;2023-11-22T14:44:31;8.50;99.90
40454;DHT22;26160;51.858;4.398;2023-11-22T14:46:57;8.50;99.90
40454;DHT22;26160;51.858;4.398;2023-11-22T14:49:32;8.50;99.90
40454;DHT22;26160;51.858;4.398;2023-11-22T14:52:00;8.40;99.90
40454;DHT22;26160;51.858;4.398;2023-11-22T14:54:27;8.30;99.90
40454;DHT22;26160;51.858;4.398;2023-11-22T14:56:53;8.30;99.90
40454;DHT22;26160;51.858;4.398;2023-11-22T14:59:29;8.30;99.90
40454;DHT22;26160;51.858;4.398;2023-11-22T15:01:58;8.30;99.90
40454;DHT22;26160;51.858;4.398;2023-11-22T15:04:26;8.30;99.90
40454;DHT22;26160;51.858;4.398;2023-11-22T15:06:52;8.30;99.90
40454;DHT22;26160;51.858;4.398;2023-11-22T15:09:18;8.30;99.90
40454;DHT22;26160;51.858;4.398;2023-11-22T15:11:44;8.30;99.90
40454;DHT22;26160;51.858;4.398;2023-11-22T15:14:10;8.30;99.90
40454;DHT22;26160;51.858;4.398;2023-11-22T15:16:37;8.20;99.90
40454;DHT22;26160;51.858;4.398;2023-11-22T15:19:09;8.20;99.90
40454;DHT22;26160;51.858;4.398;2023-11-22T15:21:36;8.10;99.90
40454;DHT22;26160;51.858;4.398;2023-11-22T15:24:02;8.10;99.90
40454;DHT22;26160;51.858;4.398;2023-11-22T15:26:29;8.00;99.90
40454;DHT22;26160;51.858;4.398;2023-11-22T15:28:57;8.00;99.90
40454;DHT22;26160;51.858;4.398;2023-11-22T15:31:23;7.90;99.90
40454;DHT22;26160;51.858;4.398;2023-11-22T15:33:50;7.90;99.90
40454;DHT22;26160;51.858;4.398;2023-11-22T15:36:16;7.90;99.90
40454;DHT22;26160;51.858;4.398;2023-11-22T15:38:42;7.90;99.90
40454;DHT22;26160;51.858;4.398;2023-11-22T15:41:08;7.80;99.90
40454;DHT22;26160;51.858;4.398;2023-11-22T15:43:35;7.80;99.90
40454;DHT22;26160;51.858;4.398;2023-11-22T15:46:01;7.80;99.90
40454;DHT22;26160;51.858;4.398;2023-11-22T15:48:27;7.80;99.90
40454;DHT22;26160;51.858;4.398;2023-11-22T15:50:54;7.70;99.90
40454;DHT22;26160;51.858;4.398;2023-11-22T15:53:20;7.70;99.90
40454;DHT22;26160;51.858;4.398;2023-11-22T15:55:46;7.70;99.90